Time;durP1;ratioP1;P1;durP2;ratioP2;P2;SDS_P1;SDS_P2;PMS_P1;PMS_P2;Temp;Humidity;BMP_temperature;BMP_pressure;BME280_temperature;BME280_humidity;BME280_pressure;Samples;Min_cycle;Max_cycle;Signal;HPM_P1;HPM_P2
2022/12/06 00:01:37;;;;;;;192.70;124.70;;;;;;;4.04;100.00;99070.00;105689;1293;59120;-77
2022/12/06 00:04:06;;;;;;;187.20;121.20;;;;;;;4.03;100.00;99066.50;105949;1290;59877;-77
2022/12/06 00:06:37;;;;;;;176.40;118.30;;;;;;;4.02;100.00;99066.02;105917;1289;63917;-77
2022/12/06 00:09:03;;;;;;;180.50;119.20;;;;;;;4.01;100.00;99062.03;105920;1290;59291;-77
2022/12/06 00:11:33;;;;;;;187.10;120.00;;;;;;;4.01;100.00;99057.64;105941;1290;58875;-76
2022/12/06 00:14:04;;;;;;;181.50;120.30;;;;;;;3.99;100.00;99056.45;105930;1290;67104;-77
2022/12/06 00:16:30;;;;;;;186.20;117.20;;;;;;;3.96;100.00;99056.06;105924;1290;69758;-76
2022/12/06 00:18:57;;;;;;;180.20;121.00;;;;;;;3.94;100.00;99053.67;105925;1290;58836;-77
2022/12/06 00:21:27;;;;;;;189.00;122.60;;;;;;;3.93;100.00;99050.36;105938;1283;58976;-76
2022/12/06 00:23:59;;;;;;;185.50;122.30;;;;;;;3.93;100.00;99049.30;105958;1291;58751;-76
2022/12/06 00:26:26;;;;;;;197.30;124.10;;;;;;;3.94;100.00;99050.33;105933;1290;67210;-76
2022/12/06 00:28:57;;;;;;;189.70;121.10;;;;;;;3.95;100.00;99046.96;105944;1290;60789;-76
2022/12/06 00:31:25;;;;;;;180.60;120.70;;;;;;;3.95;100.00;99044.48;105912;1290;71846;-76
2022/12/06 00:33:52;;;;;;;189.20;122.20;;;;;;;3.96;100.00;99042.85;105928;1291;58902;-77
2022/12/06 00:36:21;;;;;;;182.30;119.80;;;;;;;3.97;100.00;99039.30;105936;1291;58893;-76
2022/12/06 00:38:48;;;;;;;180.50;117.70;;;;;;;3.98;100.00;99038.06;105933;1290;67374;-76
2022/12/06 00:41:17;;;;;;;187.30;120.50;;;;;;;3.98;100.00;99035.58;105929;1283;69140;-76
2022/12/06 00:43:44;;;;;;;191.50;124.00;;;;;;;4.00;100.00;99030.41;105931;1283;65068;-77
2022/12/06 00:46:14;;;;;;;198.70;121.30;;;;;;;4.03;100.00;99031.18;105662;1293;58845;-77
2022/12/06 00:48:40;;;;;;;185.10;121.20;;;;;;;4.06;100.00;99029.30;105950;1297;59369;-77
2022/12/06 00:51:06;;;;;;;192.90;124.90;;;;;;;4.08;100.00;99023.59;105957;1290;58962;-77
2022/12/06 00:53:33;;;;;;;192.30;121.10;;;;;;;4.09;100.00;99022.15;105938;1291;59018;-77
2022/12/06 00:55:59;;;;;;;193.40;122.80;;;;;;;4.09;100.00;99014.94;105928;1287;59379;-76
2022/12/06 00:58:26;;;;;;;201.80;127.40;;;;;;;4.09;100.00;99011.96;105922;1297;58944;-75
2022/12/06 01:00:52;;;;;;;203.70;131.60;;;;;;;4.07;100.00;99006.91;105938;1290;58935;-77
2022/12/06 01:03:19;;;;;;;202.50;133.00;;;;;;;4.06;100.00;99006.44;105934;1292;64434;-77
2022/12/06 01:05:49;;;;;;;208.00;133.30;;;;;;;4.06;100.00;98996.79;105839;1284;59001;-77
2022/12/06 01:08:16;;;;;;;204.30;134.50;;;;;;;4.05;100.00;98995.05;105953;1290;65317;-76
2022/12/06 01:10:51;;;;;;;209.70;134.90;;;;;;;4.04;100.00;98983.13;105596;1299;59018;-75
2022/12/06 01:13:18;;;;;;;223.50;137.20;;;;;;;4.04;100.00;98983.31;105952;1290;58810;-76
2022/12/06 01:15:43;;;;;;;212.00;138.30;;;;;;;4.04;100.00;98979.63;105946;1290;67497;-76
2022/12/06 01:18:10;;;;;;;208.60;136.00;;;;;;;4.03;100.00;98978.44;105951;1284;59987;-77
2022/12/06 01:20:36;;;;;;;191.70;128.20;;;;;;;4.03;100.00;98973.67;105924;1290;59411;-76
2022/12/06 01:23:02;;;;;;;182.90;123.40;;;;;;;4.04;100.00;98975.57;105911;1290;58816;-77
2022/12/06 01:25:29;;;;;;;178.20;122.70;;;;;;;4.05;100.00;98969.18;105929;1290;58844;-76
2022/12/06 01:27:55;;;;;;;179.90;117.30;;;;;;;4.06;100.00;98963.53;105851;1287;58956;-77
2022/12/06 01:30:22;;;;;;;163.40;114.10;;;;;;;4.07;100.00;98959.43;105950;1290;59021;-77
2022/12/06 01:32:48;;;;;;;157.30;108.60;;;;;;;4.07;100.00;98956.10;105949;1298;58986;-77
2022/12/06 01:35:14;;;;;;;156.50;105.90;;;;;;;4.09;100.00;98949.70;105700;1290;59139;-75
2022/12/06 01:37:40;;;;;;;146.60;101.60;;;;;;;4.11;100.00;98944.52;105946;1290;58967;-76
2022/12/06 01:40:06;;;;;;;141.80;98.20;;;;;;;4.11;100.00;98940.16;105711;1294;59093;-77
2022/12/06 01:42:33;;;;;;;138.60;100.20;;;;;;;4.10;100.00;98932.07;105974;1291;58939;-75
2022/12/06 01:45:00;;;;;;;144.50;102.80;;;;;;;4.10;100.00;98922.05;105929;1289;59009;-77
2022/12/06 01:47:37;;;;;;;148.70;102.80;;;;;;;4.10;100.00;98918.71;105746;1291;58879;-76
2022/12/06 01:50:13;;;;;;;158.90;109.60;;;;;;;4.10;100.00;98915.73;105987;1291;58983;-76
2022/12/06 01:52:52;;;;;;;171.20;116.50;;;;;;;4.11;100.00;98915.86;105917;1291;67062;-77
2022/12/06 01:55:21;;;;;;;154.10;110.50;;;;;;;4.11;100.00;98913.05;105933;1290;69706;-76
2022/12/06 01:57:50;;;;;;;167.00;117.50;;;;;;;4.11;100.00;98907.77;105835;1290;63915;-77
2022/12/06 02:00:17;;;;;;;188.90;126.10;;;;;;;4.11;100.00;98896.88;105936;1291;58790;-77
2022/12/06 02:02:43;;;;;;;187.90;125.10;;;;;;;4.09;100.00;98892.23;105964;1290;58939;-77
2022/12/06 02:05:11;;;;;;;182.10;122.20;;;;;;;4.07;100.00;98893.00;105927;1291;65891;-77
2022/12/06 02:07:39;;;;;;;182.90;122.60;;;;;;;4.07;100.00;98894.77;105957;1290;59807;-77
2022/12/06 02:10:05;;;;;;;188.30;128.40;;;;;;;4.06;100.00;98893.58;105914;1290;63856;-77
2022/12/06 02:12:32;;;;;;;177.80;120.70;;;;;;;4.04;100.00;98885.92;105935;1289;58901;-77
2022/12/06 02:14:59;;;;;;;175.40;115.10;;;;;;;4.01;100.00;98883.23;105950;1290;58814;-76
2022/12/06 02:17:29;;;;;;;161.80;106.90;;;;;;;3.98;100.00;98881.96;105950;1285;59227;-76
2022/12/06 02:20:04;;;;;;;180.70;117.10;;;;;;;3.94;100.00;98876.84;105968;1296;60288;-76
2022/12/06 02:22:32;;;;;;;179.10;116.00;;;;;;;3.91;100.00;98876.43;105942;1284;63933;-77
2022/12/06 02:25:07;;;;;;;190.00;121.80;;;;;;;3.89;100.00;98873.70;105909;1291;58961;-77
2022/12/06 02:27:54;;;;;;;187.20;118.40;;;;;;;3.87;100.00;98876.59;105918;1283;61223;-76
2022/12/06 02:30:39;;;;;;;177.70;120.00;;;;;;;3.86;100.00;98869.98;105963;1290;64833;-76
2022/12/06 02:33:15;;;;;;;189.90;122.60;;;;;;;3.84;100.00;98865.33;105958;1290;61639;-76
2022/12/06 02:35:56;;;;;;;190.30;124.30;;;;;;;3.81;100.00;98859.27;105944;1291;64108;-76
2022/12/06 02:38:37;;;;;;;180.20;115.20;;;;;;;3.79;100.00;98857.77;105752;1293;58961;-76
2022/12/06 02:41:13;;;;;;;200.50;125.20;;;;;;;3.78;100.00;98854.16;105958;1292;59720;-76
2022/12/06 02:43:47;;;;;;;191.40;125.30;;;;;;;3.76;100.00;98848.76;105957;1287;67384;-76
2022/12/06 02:46:17;;;;;;;199.30;126.00;;;;;;;3.76;100.00;98850.02;105945;1290;68317;-76
2022/12/06 02:48:46;;;;;;;193.60;126.10;;;;;;;3.76;100.00;98849.13;105857;1283;64274;-76
2022/12/06 02:51:15;;;;;;;192.60;124.50;;;;;;;3.77;100.00;98845.44;105860;1291;58981;-76
2022/12/06 02:53:46;;;;;;;194.30;126.00;;;;;;;3.76;100.00;98841.22;105839;1290;61314;-76
2022/12/06 02:56:16;;;;;;;199.80;129.00;;;;;;;3.76;100.00;98836.63;105943;1291;67192;-77
2022/12/06 02:58:43;;;;;;;197.40;126.50;;;;;;;3.76;100.00;98834.55;105954;1291;69784;-76
2022/12/06 03:01:13;;;;;;;196.60;129.40;;;;;;;3.77;100.00;98832.60;105933;1290;72695;-76
2022/12/06 03:03:55;;;;;;;193.20;124.20;;;;;;;3.77;100.00;98829.27;105903;1296;59298;-77
2022/12/06 03:06:40;;;;;;;193.40;127.00;;;;;;;3.75;100.00;98822.28;105942;1283;61566;-76
2022/12/06 03:09:20;;;;;;;192.30;123.80;;;;;;;3.74;100.00;98820.56;105563;1279;66282;-77
2022/12/06 03:12:07;;;;;;;196.60;125.00;;;;;;;3.74;100.00;98815.81;105937;1290;60042;-76
2022/12/06 03:15:02;;;;;;;195.60;122.80;;;;;;;3.73;100.00;98808.29;105937;1297;64993;-76
2022/12/06 03:17:39;;;;;;;198.90;122.70;;;;;;;3.72;100.00;98800.45;105455;1302;58888;-76
2022/12/06 03:20:15;;;;;;;192.90;118.10;;;;;;;3.70;100.00;98797.39;105449;1297;59152;-76
2022/12/06 03:22:47;;;;;;;190.20;118.50;;;;;;;3.69;100.00;98796.90;105459;1297;66092;-76
2022/12/06 03:25:15;;;;;;;192.30;120.70;;;;;;;3.69;100.00;98797.08;105463;1297;58886;-76
2022/12/06 03:27:43;;;;;;;192.60;122.10;;;;;;;3.68;100.00;98798.66;105459;1298;65103;-76
2022/12/06 03:30:13;;;;;;;181.60;117.50;;;;;;;3.69;100.00;98799.54;105458;1297;58956;-76
2022/12/06 03:32:44;;;;;;;184.50;120.90;;;;;;;3.69;100.00;98800.73;105449;1297;58976;-76
2022/12/06 03:35:13;;;;;;;180.40;118.60;;;;;;;3.69;100.00;98804.79;105449;1297;67216;-76
2022/12/06 03:37:43;;;;;;;190.30;123.30;;;;;;;3.70;100.00;98802.82;105464;1297;60483;-76
2022/12/06 03:40:15;;;;;;;178.50;121.90;;;;;;;3.71;100.00;98801.73;105375;1300;65279;-77
2022/12/06 03:42:41;;;;;;;172.90;114.10;;;;;;;3.71;100.00;98809.09;105495;1304;58874;-76
2022/12/06 03:45:10;;;;;;;173.90;114.80;;;;;;;3.73;100.00;98812.52;105477;1298;59224;-76
2022/12/06 03:47:47;;;;;;;179.50;117.40;;;;;;;3.74;100.00;98812.30;105487;1303;65914;-78
2022/12/06 03:50:19;;;;;;;175.60;114.40;;;;;;;3.76;100.00;98814.16;105470;1299;60012;-76
2022/12/06 03:52:46;;;;;;;182.90;120.60;;;;;;;3.77;100.00;98816.40;105466;1297;65041;-76
2022/12/06 03:55:12;;;;;;;171.50;116.20;;;;;;;3.78;100.00;98811.29;105823;1283;58807;-77
2022/12/06 03:57:37;;;;;;;159.50;109.50;;;;;;;3.79;100.00;98810.35;105864;1291;58974;-77
2022/12/06 04:00:05;;;;;;;157.30;109.20;;;;;;;3.82;100.00;98809.54;105863;1290;58953;-77
2022/12/06 04:02:31;;;;;;;154.00;103.80;;;;;;;3.83;100.00;98805.08;105945;1283;58963;-77
2022/12/06 04:04:57;;;;;;;146.90;101.30;;;;;;;3.83;100.00;98799.63;105934;1291;58944;-77
2022/12/06 04:07:23;;;;;;;146.20;97.60;;;;;;;3.84;100.00;98796.60;105699;1283;58957;-77
2022/12/06 04:09:55;;;;;;;152.40;101.00;;;;;;;3.84;100.00;98798.52;105928;1290;58919;-76
2022/12/06 04:15:09;;;;;;;146.90;100.00;;;;;;;3.84;100.00;98795.01;105930;1290;61269;-76
2022/12/06 04:20:26;;;;;;;140.70;91.60;;;;;;;3.84;100.00;98797.12;105915;1291;59037;-76
2022/12/06 04:23:02;;;;;;;127.90;89.90;;;;;;;3.83;100.00;98789.25;105868;1290;58944;-76
2022/12/06 04:25:34;;;;;;;136.40;91.10;;;;;;;3.83;100.00;98780.51;105943;1291;66474;-76
2022/12/06 04:39:03;;;;;;;127.60;82.60;;;;;;;3.81;100.00;98771.42;105953;1292;67249;-75
2022/12/06 04:44:13;;;;;;;119.70;79.50;;;;;;;3.81;100.00;98772.48;105947;1292;65048;-76
2022/12/06 04:46:40;;;;;;;121.90;79.30;;;;;;;3.79;100.00;98776.08;105912;1283;59075;-75
2022/12/06 04:49:06;;;;;;;114.90;78.40;;;;;;;3.80;100.00;98773.95;105765;1290;59278;-75
2022/12/06 04:51:32;;;;;;;107.50;74.00;;;;;;;3.81;100.00;98776.36;105711;1294;59043;-76
2022/12/06 04:53:59;;;;;;;111.00;75.50;;;;;;;3.80;100.00;98776.36;105935;1292;59413;-76
2022/12/06 04:56:25;;;;;;;110.50;73.70;;;;;;;3.82;100.00;98775.80;105942;1288;59281;-76
2022/12/06 04:58:51;;;;;;;113.80;76.30;;;;;;;3.83;100.00;98775.53;105914;1291;58895;-75
2022/12/06 05:01:17;;;;;;;106.10;72.50;;;;;;;3.85;100.00;98769.87;105969;1288;58763;-76
2022/12/06 05:03:43;;;;;;;98.70;67.90;;;;;;;3.84;100.00;98762.86;105926;1296;58985;-76
2022/12/06 05:06:09;;;;;;;106.50;70.60;;;;;;;3.83;100.00;98763.80;105723;1294;59013;-76
2022/12/06 05:08:35;;;;;;;102.90;70.80;;;;;;;3.82;100.00;98760.30;105923;1291;59006;-76
2022/12/06 05:11:01;;;;;;;99.20;70.40;;;;;;;3.83;100.00;98762.04;105930;1288;58866;-76
2022/12/06 05:13:27;;;;;;;108.60;71.30;;;;;;;3.82;100.00;98764.19;105976;1290;59229;-76
2022/12/06 05:15:56;;;;;;;98.10;68.70;;;;;;;3.81;100.00;98761.77;105958;1290;59956;-76
2022/12/06 05:18:23;;;;;;;101.60;70.90;;;;;;;3.80;100.00;98760.39;105911;1291;64835;-76
2022/12/06 05:20:49;;;;;;;94.10;67.70;;;;;;;3.79;100.00;98760.11;105931;1291;58901;-75
2022/12/06 05:23:16;;;;;;;93.30;67.40;;;;;;;3.77;100.00;98758.95;105973;1290;58803;-75
2022/12/06 05:25:42;;;;;;;97.50;68.90;;;;;;;3.77;100.00;98760.55;105818;1289;67144;-76
2022/12/06 05:28:09;;;;;;;99.30;69.10;;;;;;;3.76;100.00;98761.81;105949;1291;59003;-75
2022/12/06 05:30:35;;;;;;;93.90;68.40;;;;;;;3.74;100.00;98760.14;105923;1290;59193;-76
2022/12/06 05:33:01;;;;;;;102.30;71.20;;;;;;;3.72;100.00;98762.34;105958;1282;59337;-75
2022/12/06 05:35:27;;;;;;;97.00;70.50;;;;;;;3.70;100.00;98756.23;105952;1292;59048;-75
2022/12/06 05:37:53;;;;;;;91.50;66.00;;;;;;;3.71;100.00;98759.72;105924;1292;59548;-75
2022/12/06 05:40:19;;;;;;;87.60;64.90;;;;;;;3.70;100.00;98756.56;105715;1290;59088;-75
2022/12/06 05:42:44;;;;;;;96.00;66.90;;;;;;;3.70;100.00;98754.00;105918;1297;59083;-75
2022/12/06 05:45:11;;;;;;;85.70;64.70;;;;;;;3.68;100.00;98753.17;105960;1291;58823;-74
2022/12/06 05:47:36;;;;;;;89.30;67.70;;;;;;;3.69;100.00;98751.91;105942;1297;67509;-75
2022/12/06 05:50:03;;;;;;;89.80;68.60;;;;;;;3.70;100.00;98747.86;105962;1292;59146;-75
2022/12/06 05:52:29;;;;;;;89.20;66.70;;;;;;;3.70;100.00;98745.02;105937;1293;59106;-76
2022/12/06 05:54:55;;;;;;;90.20;66.40;;;;;;;3.69;100.00;98744.34;105932;1290;58853;-76
2022/12/06 05:57:20;;;;;;;87.60;63.70;;;;;;;3.68;100.00;98744.02;105929;1290;59033;-76
2022/12/06 05:59:46;;;;;;;85.80;63.20;;;;;;;3.68;100.00;98735.62;105944;1282;59025;-74
2022/12/06 06:02:12;;;;;;;85.90;63.20;;;;;;;3.67;100.00;98743.36;105954;1290;59029;-76
2022/12/06 06:04:38;;;;;;;84.20;65.20;;;;;;;3.68;100.00;98738.95;105916;1288;59165;-76
2022/12/06 06:07:04;;;;;;;84.50;62.60;;;;;;;3.68;100.00;98734.55;105996;1287;59553;-76
2022/12/06 06:09:30;;;;;;;80.20;61.50;;;;;;;3.68;100.00;98734.04;105940;1291;67169;-76
2022/12/06 06:11:57;;;;;;;83.20;60.60;;;;;;;3.67;100.00;98732.11;105639;1286;59018;-76
2022/12/06 06:14:24;;;;;;;85.00;63.00;;;;;;;3.68;100.00;98734.37;105918;1290;58953;-75
2022/12/06 06:16:51;;;;;;;82.90;62.00;;;;;;;3.69;100.00;98742.06;105919;1291;58920;-75
2022/12/06 06:19:17;;;;;;;80.10;61.90;;;;;;;3.70;100.00;98734.45;105945;1291;58837;-75
2022/12/06 06:21:44;;;;;;;83.50;60.60;;;;;;;3.71;100.00;98732.84;105916;1291;59142;-75
2022/12/06 06:24:10;;;;;;;86.50;65.40;;;;;;;3.73;100.00;98729.25;105705;1300;69512;-76
2022/12/06 06:26:36;;;;;;;76.80;58.40;;;;;;;3.75;100.00;98724.96;105932;1289;58932;-75
2022/12/06 06:29:01;;;;;;;82.80;59.40;;;;;;;3.75;100.00;98730.59;105941;1291;59018;-76
2022/12/06 06:31:27;;;;;;;74.80;54.50;;;;;;;3.74;100.00;98728.85;105944;1290;58995;-75
2022/12/06 06:33:53;;;;;;;68.90;52.30;;;;;;;3.75;100.00;98730.76;105937;1291;59105;-73
2022/12/06 06:36:19;;;;;;;73.20;54.90;;;;;;;3.75;100.00;98732.30;105958;1284;59050;-75
2022/12/06 06:38:45;;;;;;;78.10;55.20;;;;;;;3.76;100.00;98732.29;105950;1285;59877;-75
2022/12/06 06:41:11;;;;;;;72.60;54.20;;;;;;;3.76;100.00;98730.53;105927;1289;58728;-75
2022/12/06 06:43:37;;;;;;;68.00;51.50;;;;;;;3.76;100.00;98730.36;105932;1289;67298;-75
2022/12/06 06:46:05;;;;;;;73.10;58.50;;;;;;;3.76;100.00;98725.27;105946;1282;58898;-75
2022/12/06 06:48:37;;;;;;;79.50;62.30;;;;;;;3.77;100.00;98719.95;105650;1295;72537;-76
2022/12/06 06:51:13;;;;;;;69.90;52.00;;;;;;;3.78;100.00;98723.79;105670;1292;59018;-76
2022/12/06 06:53:39;;;;;;;81.70;63.70;;;;;;;3.79;100.00;98718.30;105941;1292;58805;-75
2022/12/06 06:56:06;;;;;;;73.60;55.10;;;;;;;3.80;100.00;98715.06;105934;1290;58971;-76
2022/12/06 06:58:32;;;;;;;73.60;54.00;;;;;;;3.82;100.00;98712.70;105951;1290;60052;-76
2022/12/06 07:01:00;;;;;;;79.10;60.20;;;;;;;3.84;100.00;98708.73;105924;1289;58924;-75
2022/12/06 07:03:27;;;;;;;78.30;59.30;;;;;;;3.86;100.00;98706.53;105932;1297;59125;-75
2022/12/06 07:05:56;;;;;;;80.40;60.50;;;;;;;3.86;100.00;98702.46;105879;1291;58881;-76
2022/12/06 07:08:23;;;;;;;82.20;58.80;;;;;;;3.87;100.00;98692.42;105958;1290;66025;-76
2022/12/06 07:10:49;;;;;;;81.10;60.50;;;;;;;3.87;100.00;98688.91;105957;1297;60159;-76
2022/12/06 07:13:17;;;;;;;80.80;59.20;;;;;;;3.87;100.00;98695.94;105935;1290;65702;-76
2022/12/06 07:15:43;;;;;;;78.40;59.20;;;;;;;3.87;100.00;98693.31;105851;1284;58939;-76
2022/12/06 07:18:09;;;;;;;79.70;59.60;;;;;;;3.87;100.00;98685.77;105940;1293;58858;-76
2022/12/06 07:20:36;;;;;;;78.60;58.50;;;;;;;3.86;100.00;98680.55;105942;1289;60917;-75
2022/12/06 07:23:02;;;;;;;80.70;57.30;;;;;;;3.85;100.00;98680.40;105921;1292;59026;-75
2022/12/06 07:25:28;;;;;;;70.00;55.90;;;;;;;3.85;100.00;98688.85;105925;1292;58948;-76
2022/12/06 07:27:57;;;;;;;74.90;57.70;;;;;;;3.85;100.00;98686.88;105742;1292;59004;-77
2022/12/06 07:30:23;;;;;;;72.30;55.90;;;;;;;3.87;100.00;98682.40;105935;1291;61383;-76
2022/12/06 07:32:49;;;;;;;71.90;54.50;;;;;;;3.89;100.00;98680.73;105959;1287;58941;-75
2022/12/06 07:35:16;;;;;;;69.30;53.60;;;;;;;3.90;100.00;98680.67;105942;1287;58895;-76
2022/12/06 07:37:42;;;;;;;72.30;57.60;;;;;;;3.92;100.00;98683.79;105923;1292;58979;-75
2022/12/06 07:40:10;;;;;;;72.30;57.20;;;;;;;3.93;100.00;98682.14;105906;1296;58976;-76
2022/12/06 07:45:21;;;;;;;58.70;45.10;;;;;;;3.93;100.00;98678.79;105948;1290;66854;-76
2022/12/06 07:47:47;;;;;;;58.60;44.60;;;;;;;3.94;100.00;98678.56;105949;1295;59179;-76
2022/12/06 07:50:17;;;;;;;61.10;47.60;;;;;;;3.95;100.00;98676.61;105927;1291;59368;-76
2022/12/06 07:52:44;;;;;;;58.20;45.20;;;;;;;3.94;100.00;98673.11;105937;1295;58997;-76
2022/12/06 07:55:11;;;;;;;57.40;44.60;;;;;;;3.94;100.00;98671.91;105876;1289;58842;-77
2022/12/06 07:57:38;;;;;;;56.10;42.90;;;;;;;3.93;100.00;98672.13;105934;1292;67079;-76
2022/12/06 08:00:07;;;;;;;51.10;40.80;;;;;;;3.92;100.00;98665.83;105729;1293;68720;-75
2022/12/06 08:02:33;;;;;;;51.10;41.70;;;;;;;3.92;100.00;98665.86;105906;1295;65044;-76
2022/12/06 08:04:59;;;;;;;54.40;42.60;;;;;;;3.91;100.00;98669.08;105913;1292;59252;-76
2022/12/06 08:07:26;;;;;;;65.70;50.00;;;;;;;3.91;100.00;98676.59;105841;1293;58955;-76
2022/12/06 08:09:53;;;;;;;71.00;55.40;;;;;;;3.92;100.00;98672.54;105927;1291;58820;-77
2022/12/06 08:12:20;;;;;;;87.60;69.90;;;;;;;3.92;100.00;98670.95;105678;1284;59266;-77
2022/12/06 08:14:47;;;;;;;65.90;55.70;;;;;;;3.94;100.00;98675.08;105856;1297;65265;-76
2022/12/06 08:17:13;;;;;;;79.80;57.50;;;;;;;3.96;100.00;98679.04;105832;1296;58833;-77
2022/12/06 08:19:39;;;;;;;98.80;77.00;;;;;;;3.98;100.00;98677.88;105924;1289;58923;-75
2022/12/06 08:22:05;;;;;;;77.50;60.20;;;;;;;4.01;100.00;98680.58;105888;1295;59400;-76
2022/12/06 08:24:31;;;;;;;83.50;63.70;;;;;;;4.04;100.00;98680.95;105926;1289;59338;-76
2022/12/06 08:26:59;;;;;;;71.60;57.70;;;;;;;4.07;100.00;98678.16;105686;1279;59064;-75
2022/12/06 08:29:25;;;;;;;71.20;56.50;;;;;;;4.11;100.00;98679.56;105694;1298;59089;-76
2022/12/06 08:31:51;;;;;;;71.60;58.10;;;;;;;4.14;100.00;98678.40;105987;1289;58967;-76
2022/12/06 08:34:17;;;;;;;69.00;59.30;;;;;;;4.17;100.00;98674.70;106069;1281;58855;-76
2022/12/06 08:36:43;;;;;;;63.40;54.30;;;;;;;4.22;100.00;98674.71;106081;1292;59233;-76
2022/12/06 08:39:11;;;;;;;60.10;50.30;;;;;;;4.26;100.00;98676.77;106063;1285;59119;-78
2022/12/06 08:44:25;;;;;;;60.80;48.30;;;;;;;4.33;100.00;98678.20;106057;1289;58890;-75
2022/12/06 08:46:53;;;;;;;55.40;46.00;;;;;;;4.35;100.00;98676.71;106068;1287;66018;-77
2022/12/06 08:49:21;;;;;;;54.30;46.80;;;;;;;4.40;100.00;98675.24;106054;1289;69987;-74
2022/12/06 08:51:48;;;;;;;66.00;55.90;;;;;;;4.47;100.00;98674.74;106047;1287;63748;-76
2022/12/06 08:54:16;;;;;;;64.20;56.90;;;;;;;4.52;100.00;98677.15;106045;1288;59014;-76
2022/12/06 08:56:42;;;;;;;58.30;51.60;;;;;;;4.52;100.00;98679.76;105742;1288;59965;-76
2022/12/06 08:59:08;;;;;;;53.90;46.60;;;;;;;4.53;100.00;98680.44;106056;1282;59283;-76
2022/12/06 09:01:34;;;;;;;52.30;44.70;;;;;;;4.53;100.00;98675.33;106067;1288;59091;-76
2022/12/06 09:04:02;;;;;;;57.30;46.10;;;;;;;4.52;100.00;98671.70;106028;1288;59020;-77
2022/12/06 09:06:28;;;;;;;58.30;47.70;;;;;;;4.51;100.00;98667.69;106057;1294;58972;-75
2022/12/06 09:08:55;;;;;;;57.10;46.10;;;;;;;4.54;100.00;98665.96;106043;1288;58781;-74
2022/12/06 09:11:23;;;;;;;50.70;43.90;;;;;;;4.54;100.00;98665.77;105900;1290;67196;-76
2022/12/06 09:13:49;;;;;;;59.70;47.80;;;;;;;4.51;100.00;98662.40;105987;1289;61249;-76
2022/12/06 09:16:21;;;;;;;57.10;46.30;;;;;;;4.52;100.00;98656.57;106055;1288;59347;-76
2022/12/06 09:18:48;;;;;;;60.80;50.80;;;;;;;4.54;100.00;98655.55;106055;1289;58840;-76
2022/12/06 09:21:16;;;;;;;61.10;49.50;;;;;;;4.56;100.00;98657.08;105945;1291;58901;-75
2022/12/06 09:23:44;;;;;;;58.00;48.60;;;;;;;4.56;100.00;98652.99;106065;1287;66003;-75
2022/12/06 09:26:10;;;;;;;58.70;47.90;;;;;;;4.58;100.00;98647.82;106098;1289;58914;-78
2022/12/06 09:28:39;;;;;;;69.50;59.70;;;;;;;4.60;100.00;98639.08;105883;1289;59052;-78
2022/12/06 09:31:08;;;;;;;61.80;52.50;;;;;;;4.63;100.00;98643.19;105994;1282;58884;-75
2022/12/06 09:33:34;;;;;;;55.10;44.10;;;;;;;4.65;100.00;98641.55;105846;1288;59018;-76
2022/12/06 09:36:15;;;;;;;56.00;44.90;;;;;;;4.65;100.00;98636.94;105915;1292;59109;-76
2022/12/06 09:38:46;;;;;;;55.60;44.30;;;;;;;4.66;100.00;98635.31;105620;1294;61007;-76
2022/12/06 09:41:49;;;;;;;55.60;45.60;;;;;;;4.66;100.00;98630.94;105626;1300;65249;-89
2022/12/06 09:44:30;;;;;;;51.60;42.00;;;;;;;4.67;100.00;98625.44;105681;1294;59167;-90
2022/12/06 09:47:26;;;;;;;53.00;43.00;;;;;;;4.66;100.00;98626.17;105727;1294;58884;-86
2022/12/06 09:50:22;;;;;;;54.50;44.90;;;;;;;4.65;100.00;98626.38;105649;1300;65926;-86
2022/12/06 09:53:17;;;;;;;53.50;42.10;;;;;;;4.62;100.00;98625.44;105770;1295;59192;-88
2022/12/06 09:56:05;;;;;;;56.80;44.50;;;;;;;4.59;100.00;98623.67;105717;1293;65002;-87
2022/12/06 09:58:49;;;;;;;56.50;43.50;;;;;;;4.58;100.00;98622.15;105725;1294;59047;-75
2022/12/06 10:01:38;;;;;;;58.20;46.20;;;;;;;4.57;100.00;98617.41;105708;1297;60542;-75
2022/12/06 10:04:32;;;;;;;57.40;48.20;;;;;;;4.56;100.00;98615.91;105247;1307;74998;-74
2022/12/06 10:07:23;;;;;;;61.20;49.40;;;;;;;4.56;100.00;98613.62;105246;1301;61221;-74
2022/12/06 10:10:02;;;;;;;62.30;48.20;;;;;;;4.58;100.00;98614.20;105356;1284;62693;-75
2022/12/06 10:12:34;;;;;;;63.60;50.20;;;;;;;4.60;100.00;98613.05;105428;1297;59758;-74
2022/12/06 10:15:31;;;;;;;69.90;54.10;;;;;;;4.61;100.00;98612.98;105450;1291;59303;-73
2022/12/06 10:18:25;;;;;;;71.50;54.90;;;;;;;4.65;100.00;98615.13;105434;1297;66048;-75
2022/12/06 10:21:07;;;;;;;66.00;52.30;;;;;;;4.69;100.00;98616.89;104896;1305;60225;-74
2022/12/06 10:23:56;;;;;;;70.90;54.40;;;;;;;4.71;100.00;98613.92;104850;1310;72948;-74
2022/12/06 10:26:39;;;;;;;71.80;54.20;;;;;;;4.73;100.00;98611.04;104885;1308;58928;-74
2022/12/06 10:29:12;;;;;;;77.80;60.00;;;;;;;4.76;100.00;98612.48;104859;1302;58935;-74
2022/12/06 10:32:21;;;;;;;68.60;53.60;;;;;;;4.79;100.00;98611.42;104872;1303;66102;-74
2022/12/06 10:34:57;;;;;;;67.70;52.50;;;;;;;4.82;100.00;98609.84;104051;1311;60165;-74
2022/12/06 10:37:35;;;;;;;69.40;53.30;;;;;;;4.84;100.00;98605.55;104067;1315;64149;-74
2022/12/06 10:40:05;;;;;;;71.10;52.60;;;;;;;4.86;100.00;98598.79;104067;1318;59276;-74
2022/12/06 10:42:44;;;;;;;68.20;50.60;;;;;;;4.89;100.00;98600.91;104588;1305;58905;-74
2022/12/06 10:48:07;;;;;;;65.90;51.60;;;;;;;4.90;100.00;98592.40;104520;1304;164662;-74
2022/12/06 10:50:38;;;;;;;64.50;50.80;;;;;;;4.92;100.00;98587.00;104624;1305;73337;-74
2022/12/06 10:53:15;;;;;;;62.00;48.90;;;;;;;4.92;100.00;98591.08;104638;1305;58920;-74
2022/12/06 10:55:57;;;;;;;67.40;50.50;;;;;;;4.92;100.00;98587.91;104643;1305;59812;-74
2022/12/06 10:58:32;;;;;;;65.30;50.20;;;;;;;4.91;100.00;98590.21;104928;1302;66236;-74
2022/12/06 11:01:02;;;;;;;66.50;48.40;;;;;;;4.88;100.00;98589.14;105221;1300;58972;-75
2022/12/06 11:03:36;;;;;;;62.00;47.50;;;;;;;4.86;100.00;98590.52;105223;1294;65178;-74
2022/12/06 11:06:24;;;;;;;57.20;45.00;;;;;;;4.80;100.00;98592.89;105222;1300;58893;-75
2022/12/06 11:08:57;;;;;;;51.00;36.90;;;;;;;4.72;100.00;98593.98;105229;1294;60885;-74
2022/12/06 11:11:30;;;;;;;31.30;24.80;;;;;;;4.63;100.00;98594.25;105350;1300;66864;-74
2022/12/06 11:14:05;;;;;;;27.70;21.10;;;;;;;4.52;100.00;98597.11;105665;1292;60667;-74
2022/12/06 11:16:53;;;;;;;19.40;15.50;;;;;;;4.42;100.00;98594.96;105869;1290;62592;-74
2022/12/06 11:19:28;;;;;;;15.80;13.00;;;;;;;4.33;100.00;98600.10;105824;1297;59427;-74
2022/12/06 11:22:03;;;;;;;13.30;11.80;;;;;;;4.25;100.00;98593.66;105843;1290;60578;-74
2022/12/06 11:24:36;;;;;;;16.50;13.80;;;;;;;4.17;100.00;98592.23;105848;1290;73788;-74
2022/12/06 11:27:16;;;;;;;13.60;11.80;;;;;;;4.17;100.00;98591.20;105871;1290;61066;-74
2022/12/06 11:29:46;;;;;;;13.00;11.50;;;;;;;4.21;100.00;98593.50;105841;1284;63980;-74
2022/12/06 11:32:15;;;;;;;15.50;14.00;;;;;;;4.24;100.00;98593.17;105838;1290;58817;-75
2022/12/06 11:34:55;;;;;;;17.80;15.50;;;;;;;4.25;100.00;98590.64;105626;1288;58920;-77
2022/12/06 11:37:26;;;;;;;17.30;15.70;;;;;;;4.28;100.00;98587.01;105874;1289;66041;-75
2022/12/06 11:40:19;;;;;;;18.10;14.90;;;;;;;4.33;100.00;98591.00;105857;1283;60951;-74
2022/12/06 11:42:45;;;;;;;21.50;19.40;;;;;;;4.35;100.00;98592.83;105879;1289;65145;-75
2022/12/06 11:45:25;;;;;;;24.90;22.40;;;;;;;4.35;100.00;98589.30;105847;1290;58913;-76